Time;durP1;ratioP1;P1;durP2;ratioP2;P2;SDS_P1;SDS_P2;PMS_P1;PMS_P2;Temp;Humidity;BMP_temperature;BMP_pressure;BME280_temperature;BME280_humidity;BME280_pressure;Samples;Min_cycle;Max_cycle;Signal;HPM_P1;HPM_P2
2022/11/30 00:03:00;;;;;;;1.90;1.30;;;11.30;49.80;;;;;;4987140;28;20214;-72
2022/11/30 00:05:26;;;;;;;2.00;1.50;;;11.40;50.70;;;;;;5000259;28;20201;-72
2022/11/30 00:07:53;;;;;;;2.20;1.60;;;11.70;49.10;;;;;;5002756;28;20181;-72
2022/11/30 00:10:19;;;;;;;2.67;1.63;;;11.80;48.50;;;;;;5002520;28;20228;-72
2022/11/30 00:12:45;;;;;;;2.30;1.55;;;11.80;48.30;;;;;;4999079;28;20213;-72
2022/11/30 00:15:13;;;;;;;3.70;2.43;;;11.50;49.20;;;;;;4996631;28;20195;-72
2022/11/30 00:17:42;;;;;;;2.45;1.55;;;11.60;49.60;;;;;;4994463;28;20466;-72
2022/11/30 00:20:09;;;;;;;1.90;1.30;;;11.50;49.90;;;;;;4992739;28;20239;-72
2022/11/30 00:22:35;;;;;;;4.50;2.25;;;11.60;49.30;;;;;;5004683;28;20218;-72
2022/11/30 00:25:03;;;;;;;2.63;1.70;;;11.50;49.00;;;;;;5004137;28;20218;-72
2022/11/30 00:27:30;;;;;;;1.95;1.40;;;11.60;49.00;;;;;;4983545;28;20623;-73
2022/11/30 00:29:56;;;;;;;1.90;1.33;;;11.60;49.30;;;;;;4994021;28;20184;-73
2022/11/30 00:32:22;;;;;;;2.00;1.50;;;11.70;48.50;;;;;;4993900;28;20207;-75
2022/11/30 00:34:48;;;;;;;4.05;2.13;;;11.70;49.20;;;;;;5004750;28;20185;-73
2022/11/30 00:37:13;;;;;;;1.80;1.30;;;11.60;49.00;;;;;;5003377;28;20185;-74
2022/11/30 00:39:39;;;;;;;2.10;1.50;;;11.90;48.20;;;;;;5016971;28;20176;-73
2022/11/30 00:42:05;;;;;;;1.80;1.30;;;11.80;48.00;;;;;;5009794;28;20228;-74
2022/11/30 00:44:31;;;;;;;2.00;1.50;;;11.70;48.40;;;;;;4999202;28;20208;-73
2022/11/30 00:46:56;;;;;;;2.00;1.47;;;11.60;48.80;;;;;;5005837;28;20421;-74
2022/11/30 00:49:22;;;;;;;1.87;1.30;;;11.50;49.10;;;;;;4993957;28;20184;-73
2022/11/30 00:51:47;;;;;;;2.37;1.67;;;11.60;49.60;;;;;;5003322;28;20235;-73
2022/11/30 00:54:13;;;;;;;1.80;1.23;;;11.60;49.00;;;;;;5002835;28;20180;-73
2022/11/30 00:56:39;;;;;;;2.17;1.50;;;11.40;49.90;;;;;;5008119;28;20169;-73
2022/11/30 00:59:04;;;;;;;3.13;1.97;;;11.40;49.60;;;;;;4992519;28;20217;-73
2022/11/30 01:01:30;;;;;;;2.90;2.07;;;11.40;49.90;;;;;;5011300;28;20684;-73
2022/11/30 01:03:56;;;;;;;1.80;1.20;;;11.40;49.90;;;;;;5012630;28;20184;-73
2022/11/30 01:06:22;;;;;;;4.10;2.45;;;11.40;49.30;;;;;;5013177;28;20214;-73
2022/11/30 01:08:47;;;;;;;2.30;1.83;;;11.40;49.90;;;;;;5003454;28;20222;-73
2022/11/30 01:11:21;;;;;;;1.70;1.10;;;11.50;49.40;;;;;;5011005;28;20200;-73
2022/11/30 01:13:47;;;;;;;1.90;1.20;;;11.70;48.40;;;;;;5013082;28;20153;-74
2022/11/30 01:16:16;;;;;;;2.43;1.43;;;11.60;49.00;;;;;;5012885;28;20264;-73
2022/11/30 01:18:42;;;;;;;2.42;1.58;;;11.50;48.90;;;;;;5013012;28;20175;-74
2022/11/30 01:21:10;;;;;;;3.72;1.95;;;11.60;49.80;;;;;;5003146;28;20265;-73
2022/11/30 01:23:36;;;;;;;1.80;1.20;;;11.50;49.50;;;;;;5011245;28;20186;-73
2022/11/30 01:26:02;;;;;;;1.70;1.10;;;11.40;49.20;;;;;;5002365;28;20721;-74
2022/11/30 01:28:27;;;;;;;2.30;1.70;;;11.50;48.90;;;;;;4993095;28;20422;-73
2022/11/30 01:31:02;;;;;;;1.80;1.30;;;11.50;48.80;;;;;;4994667;28;20282;-73
2022/11/30 01:33:28;;;;;;;2.25;1.40;;;11.50;48.20;;;;;;4993818;28;20591;-73
2022/11/30 01:36:15;;;;;;;1.70;1.10;;;11.60;48.80;;;;;;5011384;28;20192;-73
2022/11/30 01:38:46;;;;;;;1.80;1.23;;;11.70;48.20;;;;;;4999733;28;20177;-74
2022/11/30 01:41:14;;;;;;;1.95;1.50;;;12.10;48.90;;;;;;5005537;28;20210;-73
2022/11/30 01:43:44;;;;;;;1.80;1.23;;;11.50;49.10;;;;;;4998366;28;20219;-73
2022/11/30 01:46:25;;;;;;;1.98;1.30;;;11.70;49.90;;;;;;5003933;28;20262;-74
2022/11/30 01:48:59;;;;;;;1.98;1.30;;;11.40;49.40;;;;;;5011041;28;20157;-73
2022/11/30 01:51:29;;;;;;;2.28;1.70;;;11.40;49.70;;;;;;4999971;28;20213;-74
2022/11/30 01:53:55;;;;;;;1.80;1.23;;;11.50;48.80;;;;;;5022860;28;20188;-73
2022/11/30 01:56:20;;;;;;;2.00;1.47;;;11.70;48.50;;;;;;5008386;28;20681;-73
2022/11/30 01:58:46;;;;;;;1.90;1.30;;;11.60;47.60;;;;;;4992851;28;20184;-74
2022/11/30 02:01:12;;;;;;;1.70;1.10;;;11.60;47.80;;;;;;4992331;28;20301;-74
2022/11/30 02:04:09;;;;;;;1.70;1.10;;;11.60;48.10;;;;;;5000160;28;20508;-73
2022/11/30 02:06:35;;;;;;;1.90;1.40;;;11.10;49.60;;;;;;5012050;28;20238;-74
2022/11/30 02:09:02;;;;;;;1.70;1.20;;;11.30;49.60;;;;;;5012092;28;20208;-74
2022/11/30 02:11:27;;;;;;;1.70;1.17;;;11.50;48.80;;;;;;5011972;28;20197;-73
2022/11/30 02:13:55;;;;;;;2.27;1.60;;;11.70;48.50;;;;;;5005394;28;20185;-75
2022/11/30 02:16:41;;;;;;;2.03;1.30;;;11.90;48.80;;;;;;5010338;28;20272;-74
2022/11/30 02:19:45;;;;;;;2.10;1.58;;;12.00;48.20;;;;;;4989785;28;20195;-74
2022/11/30 02:22:14;;;;;;;1.90;1.30;;;11.60;48.20;;;;;;5009569;28;20197;-74
2022/11/30 02:24:50;;;;;;;3.15;1.63;;;11.50;48.80;;;;;;5002828;28;20672;-74
2022/11/30 02:27:34;;;;;;;2.00;1.35;;;11.60;48.20;;;;;;5008903;28;20670;-74
2022/11/30 02:30:01;;;;;;;1.80;1.20;;;11.60;47.50;;;;;;4992188;28;20173;-74
2022/11/30 02:32:33;;;;;;;2.00;1.42;;;11.70;47.70;;;;;;5001332;28;20286;-74
2022/11/30 02:35:02;;;;;;;2.00;1.40;;;11.60;47.30;;;;;;5004171;28;20186;-73
2022/11/30 02:37:28;;;;;;;2.20;1.50;;;11.40;48.10;;;;;;5011362;28;20199;-75
2022/11/30 02:39:54;;;;;;;1.90;1.25;;;11.50;48.00;;;;;;5001849;28;20273;-74
2022/11/30 02:42:20;;;;;;;1.70;1.10;;;11.50;48.80;;;;;;4993882;28;20706;-74
2022/11/30 02:44:51;;;;;;;3.40;1.50;;;11.70;48.10;;;;;;5004134;28;20460;-74
2022/11/30 02:47:33;;;;;;;2.65;1.50;;;11.50;48.20;;;;;;5011885;28;20584;-74
2022/11/30 02:50:22;;;;;;;2.67;1.90;;;11.50;48.20;;;;;;4996142;28;20199;-73
2022/11/30 02:52:50;;;;;;;2.03;1.40;;;11.30;48.00;;;;;;5001924;28;20697;-74
2022/11/30 02:55:17;;;;;;;2.28;1.45;;;11.30;49.00;;;;;;4996633;28;20204;-73
2022/11/30 02:57:43;;;;;;;1.80;1.20;;;11.40;48.80;;;;;;5014407;28;20262;-74
2022/11/30 03:00:11;;;;;;;1.90;1.30;;;11.50;48.30;;;;;;5006024;28;20272;-74
2022/11/30 03:02:37;;;;;;;2.03;1.38;;;11.40;47.60;;;;;;5013532;28;20216;-73
2022/11/30 03:05:04;;;;;;;1.80;1.20;;;11.20;48.30;;;;;;5003925;28;20233;-74
2022/11/30 03:07:29;;;;;;;1.80;1.23;;;11.40;48.00;;;;;;5005930;28;20201;-74
2022/11/30 03:09:55;;;;;;;1.80;1.20;;;11.50;47.90;;;;;;5007203;28;20700;-74
2022/11/30 03:12:21;;;;;;;1.70;1.10;;;11.50;47.80;;;;;;5014984;28;20199;-74
2022/11/30 03:14:46;;;;;;;1.92;1.30;;;11.30;48.60;;;;;;5013218;28;20215;-74
2022/11/30 03:17:12;;;;;;;2.00;1.30;;;11.40;48.80;;;;;;5001805;28;20227;-73
2022/11/30 03:19:38;;;;;;;2.37;1.67;;;11.40;48.10;;;;;;5011680;28;20821;-73
2022/11/30 03:22:03;;;;;;;1.70;1.10;;;11.50;47.80;;;;;;5006511;28;20205;-74
2022/11/30 03:24:29;;;;;;;1.70;1.20;;;11.40;48.40;;;;;;4998473;28;20188;-74
2022/11/30 03:26:54;;;;;;;1.80;1.20;;;11.60;48.40;;;;;;5006722;28;20259;-74
2022/11/30 03:29:20;;;;;;;2.63;1.60;;;11.50;47.80;;;;;;5007034;28;20192;-73
2022/11/30 03:31:46;;;;;;;2.20;1.53;;;11.50;48.00;;;;;;5000576;28;20628;-74
2022/11/30 03:34:11;;;;;;;2.33;1.43;;;11.60;48.40;;;;;;4995059;28;20175;-74
2022/11/30 03:36:37;;;;;;;1.90;1.30;;;11.30;48.20;;;;;;4995351;28;20183;-74
2022/11/30 03:39:03;;;;;;;1.90;1.30;;;11.50;48.50;;;;;;4997136;28;20191;-74
2022/11/30 03:41:28;;;;;;;1.80;1.20;;;11.30;47.80;;;;;;5006515;28;20232;-74
2022/11/30 03:43:55;;;;;;;1.70;1.10;;;11.40;48.90;;;;;;5012712;28;20680;-74
2022/11/30 03:46:21;;;;;;;2.10;1.40;;;11.40;48.60;;;;;;5004369;28;20244;-75
2022/11/30 03:48:47;;;;;;;2.00;1.50;;;11.50;47.70;;;;;;5007634;28;20182;-74
2022/11/30 03:51:13;;;;;;;1.70;1.10;;;11.30;48.50;;;;;;5009626;28;20479;-74
2022/11/30 03:53:40;;;;;;;2.95;1.73;;;11.20;49.50;;;;;;5007868;28;20185;-74
2022/11/30 03:56:08;;;;;;;1.70;1.00;;;11.40;48.80;;;;;;5013975;28;20220;-75
2022/11/30 03:58:33;;;;;;;1.80;1.20;;;11.10;49.60;;;;;;5006037;28;20685;-74
2022/11/30 04:01:05;;;;;;;1.90;1.30;;;11.20;49.70;;;;;;5007558;28;20251;-73
2022/11/30 04:03:31;;;;;;;1.70;1.20;;;11.40;48.30;;;;;;5002565;28;20186;-73
2022/11/30 04:05:57;;;;;;;2.37;1.50;;;11.40;48.10;;;;;;4994476;28;20212;-74
2022/11/30 04:08:24;;;;;;;1.80;1.20;;;11.50;48.20;;;;;;4992932;28;20170;-74
2022/11/30 04:10:51;;;;;;;2.30;1.65;;;11.50;48.00;;;;;;5001976;28;20214;-74
2022/11/30 04:13:17;;;;;;;2.00;1.35;;;11.50;48.60;;;;;;5004049;28;20269;-74
2022/11/30 04:15:44;;;;;;;2.35;1.52;;;11.60;48.30;;;;;;4996989;28;20589;-74
2022/11/30 04:18:10;;;;;;;1.73;1.17;;;11.60;47.40;;;;;;5006181;28;20797;-73
2022/11/30 04:20:35;;;;;;;2.47;1.57;;;11.50;48.00;;;;;;5003082;28;20224;-74
2022/11/30 04:23:01;;;;;;;1.80;1.20;;;11.80;48.80;;;;;;5011885;28;20207;-74
2022/11/30 04:25:26;;;;;;;2.40;1.50;;;11.50;48.60;;;;;;5005603;28;20617;-74
2022/11/30 04:27:52;;;;;;;1.70;1.00;;;11.50;48.60;;;;;;5013884;28;20178;-74
2022/11/30 04:30:18;;;;;;;1.70;1.10;;;11.50;47.80;;;;;;5008554;28;20183;-74
2022/11/30 04:32:43;;;;;;;2.47;1.70;;;11.30;48.70;;;;;;5001287;28;20572;-74
2022/11/30 04:35:10;;;;;;;1.70;1.10;;;11.50;48.60;;;;;;4994096;28;20178;-74
2022/11/30 04:37:36;;;;;;;1.88;1.35;;;11.50;49.20;;;;;;5005142;28;20638;-74
2022/11/30 04:40:01;;;;;;;7.57;1.40;;;11.70;47.80;;;;;;5006708;28;20189;-74
2022/11/30 04:42:27;;;;;;;1.70;1.10;;;11.50;48.40;;;;;;5002318;28;20237;-74
2022/11/30 04:44:52;;;;;;;2.33;1.57;;;11.50;48.20;;;;;;5006588;28;20219;-74
2022/11/30 04:47:18;;;;;;;2.20;1.40;;;11.60;48.50;;;;;;5005362;28;20266;-74
2022/11/30 04:49:44;;;;;;;1.70;1.10;;;11.70;47.70;;;;;;5013637;28;20177;-73
2022/11/30 04:52:09;;;;;;;1.97;1.33;;;11.70;47.50;;;;;;5008170;28;20209;-74
2022/11/30 04:54:35;;;;;;;1.90;1.20;;;9.60;47.40;;;;;;5008211;28;20194;-75
2022/11/30 04:57:00;;;;;;;2.10;1.50;;;11.90;48.70;;;;;;4994180;28;20192;-74
2022/11/30 04:59:26;;;;;;;1.83;1.23;;;11.50;48.20;;;;;;4994441;28;20903;-74
2022/11/30 05:01:53;;;;;;;3.30;1.47;;;11.50;48.30;;;;;;5005806;28;20249;-74
2022/11/30 05:04:18;;;;;;;2.05;1.30;;;11.60;47.90;;;;;;5005246;28;20177;-73
2022/11/30 05:06:44;;;;;;;3.10;1.50;;;11.50;48.60;;;;;;5002962;28;20223;-73
2022/11/30 05:09:09;;;;;;;1.90;1.30;;;11.50;48.40;;;;;;5004575;28;20209;-74
2022/11/30 05:11:35;;;;;;;2.00;1.47;;;11.90;49.00;;;;;;5010120;28;20718;-74
2022/11/30 05:14:00;;;;;;;1.87;1.30;;;11.70;48.20;;;;;;4985061;28;20181;-74
2022/11/30 05:16:26;;;;;;;2.37;1.87;;;11.60;47.90;;;;;;4993353;28;20185;-74
2022/11/30 05:18:52;;;;;;;1.80;1.20;;;11.60;47.80;;;;;;5002810;28;20188;-74
2022/11/30 05:21:17;;;;;;;2.23;1.50;;;11.60;47.80;;;;;;5004505;28;20208;-75
2022/11/30 05:23:43;;;;;;;2.00;1.50;;;11.50;48.00;;;;;;5012673;28;20200;-74
2022/11/30 05:26:09;;;;;;;1.80;1.20;;;11.50;48.30;;;;;;4997816;28;20665;-73
2022/11/30 05:28:35;;;;;;;1.70;1.10;;;11.60;48.50;;;;;;4991787;28;20205;-74
2022/11/30 05:31:03;;;;;;;2.00;1.55;;;11.50;48.20;;;;;;5007472;28;20286;-74
2022/11/30 05:33:28;;;;;;;1.90;1.30;;;11.40;48.90;;;;;;5006349;28;20179;-74
2022/11/30 05:35:54;;;;;;;2.33;1.47;;;11.50;48.60;;;;;;5004271;28;20258;-74
2022/11/30 05:38:20;;;;;;;1.97;1.33;;;11.60;47.80;;;;;;5012624;28;20192;-74
2022/11/30 05:40:45;;;;;;;3.00;1.30;;;11.50;47.60;;;;;;5009481;28;20709;-74
2022/11/30 05:43:11;;;;;;;1.80;1.30;;;11.50;47.90;;;;;;4992861;28;20251;-73
2022/11/30 05:45:37;;;;;;;2.05;1.40;;;11.50;47.60;;;;;;4986040;28;20251;-74
2022/11/30 05:48:03;;;;;;;5.93;1.77;;;11.60;47.60;;;;;;4992690;28;20182;-74
2022/11/30 05:50:29;;;;;;;4.43;2.47;;;11.60;47.60;;;;;;4996926;28;20465;-74
2022/11/30 05:52:55;;;;;;;1.70;1.10;;;11.40;47.40;;;;;;5004848;28;20259;-74
2022/11/30 05:55:23;;;;;;;1.95;1.25;;;11.20;48.30;;;;;;5004035;28;20464;-74
2022/11/30 05:57:48;;;;;;;1.80;1.17;;;11.40;48.30;;;;;;5012169;28;20184;-74
2022/11/30 06:00:14;;;;;;;1.93;1.33;;;11.40;48.10;;;;;;4995416;28;20197;-74
2022/11/30 06:02:40;;;;;;;1.80;1.20;;;11.40;47.70;;;;;;5007064;28;20219;-75
2022/11/30 06:05:06;;;;;;;2.63;1.83;;;11.30;48.20;;;;;;5011755;28;20215;-74
2022/11/30 06:07:32;;;;;;;1.95;1.30;;;11.40;48.20;;;;;;5010152;28;20665;-74
2022/11/30 06:09:58;;;;;;;1.90;1.37;;;11.30;48.60;;;;;;5003024;28;20268;-74
2022/11/30 06:12:24;;;;;;;2.00;1.33;;;11.30;48.20;;;;;;5000487;28;20457;-74
2022/11/30 06:14:50;;;;;;;1.90;1.40;;;11.30;48.50;;;;;;5007873;28;20191;-74
2022/11/30 06:17:16;;;;;;;2.00;1.40;;;11.40;49.10;;;;;;5009915;28;20201;-74
2022/11/30 06:19:42;;;;;;;1.70;1.17;;;11.50;47.70;;;;;;5004802;28;20184;-74
2022/11/30 06:22:07;;;;;;;2.00;1.40;;;11.40;48.10;;;;;;5006623;28;20735;-75
2022/11/30 06:24:33;;;;;;;1.80;1.30;;;11.50;48.00;;;;;;4997461;28;20181;-74
2022/11/30 06:26:58;;;;;;;2.50;1.77;;;11.50;47.30;;;;;;5003751;28;21265;-74
2022/11/30 06:29:24;;;;;;;1.80;1.20;;;11.40;47.50;;;;;;5003749;28;20175;-74
2022/11/30 06:31:50;;;;;;;1.73;1.20;;;11.30;47.80;;;;;;4997730;28;20719;-74
2022/11/30 06:34:15;;;;;;;2.20;1.50;;;11.20;48.50;;;;;;5007192;28;20195;-74
2022/11/30 06:36:41;;;;;;;2.27;1.67;;;11.20;48.30;;;;;;5000541;28;20606;-73
2022/11/30 06:39:10;;;;;;;2.23;1.53;;;11.20;48.10;;;;;;5007098;28;20195;-74
2022/11/30 06:41:35;;;;;;;1.80;1.10;;;11.30;48.40;;;;;;5006731;28;20653;-73
2022/11/30 06:44:01;;;;;;;1.90;1.23;;;11.20;48.50;;;;;;4997822;28;20190;-74
2022/11/30 06:46:27;;;;;;;1.90;1.30;;;11.30;48.00;;;;;;4995809;28;20719;-74
2022/11/30 06:48:52;;;;;;;1.90;1.23;;;11.40;48.30;;;;;;4992656;28;20186;-74
2022/11/30 06:51:18;;;;;;;2.37;1.40;;;11.40;47.90;;;;;;5006303;28;20710;-75
2022/11/30 06:53:45;;;;;;;1.92;1.27;;;11.40;47.80;;;;;;5002699;28;20646;-74
2022/11/30 06:56:11;;;;;;;2.63;1.40;;;11.50;47.80;;;;;;5009393;28;20212;-74
2022/11/30 06:58:40;;;;;;;2.10;1.40;;;11.40;47.40;;;;;;5005467;28;20595;-74
2022/11/30 07:01:08;;;;;;;1.85;1.35;;;11.30;48.30;;;;;;5004278;28;20474;-74
2022/11/30 07:03:33;;;;;;;1.80;1.17;;;11.40;47.70;;;;;;4996279;28;20187;-74
2022/11/30 07:05:59;;;;;;;1.70;1.10;;;11.30;48.00;;;;;;5009737;28;20215;-74
2022/11/30 07:08:24;;;;;;;3.00;1.83;;;11.30;48.80;;;;;;5003079;28;20226;-74
2022/11/30 07:10:50;;;;;;;2.07;1.37;;;11.20;48.70;;;;;;5006222;28;20207;-74
2022/11/30 07:13:17;;;;;;;1.70;1.10;;;11.30;48.60;;;;;;5007572;28;20187;-74
2022/11/30 07:15:44;;;;;;;2.50;1.30;;;11.30;48.60;;;;;;5001031;28;20586;-74
2022/11/30 07:18:10;;;;;;;1.90;1.33;;;11.30;48.80;;;;;;5003342;28;20200;-74
2022/11/30 07:20:37;;;;;;;2.08;1.40;;;11.20;49.50;;;;;;5000194;28;20557;-74
2022/11/30 07:26:08;;;;;;;1.75;1.10;;;11.10;47.80;;;;;;5001026;28;20297;-75
2022/11/30 07:28:38;;;;;;;1.80;1.20;;;11.20;46.40;;;;;;5001629;28;20170;-74
2022/11/30 07:31:21;;;;;;;1.80;1.20;;;11.00;46.80;;;;;;5006664;28;20686;-74
2022/11/30 07:33:48;;;;;;;1.90;1.30;;;10.90;46.70;;;;;;5006320;28;20196;-74
2022/11/30 07:36:15;;;;;;;1.95;1.35;;;10.80;46.90;;;;;;5008778;28;20275;-74
2022/11/30 07:38:40;;;;;;;1.98;1.45;;;10.80;47.30;;;;;;5008956;28;20637;-74
2022/11/30 07:41:06;;;;;;;2.10;1.30;;;10.80;47.60;;;;;;5006284;28;20221;-74
2022/11/30 07:43:32;;;;;;;1.80;1.20;;;10.90;47.30;;;;;;5007774;28;20229;-74
2022/11/30 07:45:58;;;;;;;3.10;2.03;;;11.00;47.40;;;;;;5005328;28;20211;-75
2022/11/30 07:48:24;;;;;;;1.75;1.08;;;11.10;45.30;;;;;;5009920;28;20309;-74
2022/11/30 07:50:50;;;;;;;1.87;1.30;;;11.10;46.80;;;;;;5010175;28;20284;-74
2022/11/30 07:53:16;;;;;;;2.57;1.63;;;11.30;46.60;;;;;;5003348;28;20199;-74
2022/11/30 07:55:42;;;;;;;1.90;1.30;;;11.30;45.70;;;;;;5006023;28;20245;-74
2022/11/30 07:58:11;;;;;;;2.13;1.38;;;11.30;46.30;;;;;;5006137;28;20200;-74
2022/11/30 08:00:37;;;;;;;1.83;1.20;;;11.20;46.30;;;;;;5014181;28;20171;-74
2022/11/30 08:03:03;;;;;;;1.88;1.30;;;11.30;46.30;;;;;;5005333;28;20193;-74
2022/11/30 08:05:29;;;;;;;1.87;1.27;;;11.10;46.20;;;;;;5007066;28;20642;-74
2022/11/30 08:07:55;;;;;;;2.00;1.33;;;11.40;45.80;;;;;;5005062;28;20183;-74
2022/11/30 08:10:21;;;;;;;4.67;1.50;;;11.30;46.30;;;;;;5005566;28;20680;-74
2022/11/30 08:12:48;;;;;;;2.10;1.50;;;11.60;45.10;;;;;;4999502;28;20196;-74
2022/11/30 08:15:14;;;;;;;1.80;1.20;;;11.60;44.90;;;;;;4994381;28;20215;-74
2022/11/30 08:17:39;;;;;;;2.30;1.73;;;11.50;44.90;;;;;;5011519;28;20215;-74
2022/11/30 08:20:09;;;;;;;1.87;1.20;;;11.60;46.20;;;;;;5011026;28;20958;-74
2022/11/30 08:22:35;;;;;;;1.75;1.10;;;11.70;45.40;;;;;;5006611;28;20236;-74
2022/11/30 08:25:01;;;;;;;1.90;1.23;;;11.70;45.20;;;;;;5006673;28;20680;-74
2022/11/30 08:27:26;;;;;;;2.00;1.67;;;11.70;45.40;;;;;;5004949;28;20189;-74
2022/11/30 08:29:52;;;;;;;2.50;1.70;;;11.80;46.10;;;;;;5011645;28;20191;-74
2022/11/30 08:32:18;;;;;;;2.00;1.40;;;12.00;44.40;;;;;;4993869;28;20201;-74
2022/11/30 08:34:43;;;;;;;1.70;1.13;;;12.10;41.80;;;;;;4998275;28;20671;-74
2022/11/30 08:37:09;;;;;;;1.90;1.30;;;12.30;41.20;;;;;;5009450;28;20268;-74
2022/11/30 08:39:34;;;;;;;1.70;1.10;;;12.10;42.70;;;;;;5008845;28;20184;-74
2022/11/30 08:42:01;;;;;;;2.00;1.27;;;12.40;42.10;;;;;;5005403;28;20201;-75
2022/11/30 08:44:27;;;;;;;4.25;1.75;;;12.20;41.70;;;;;;5006493;28;20186;-74
2022/11/30 08:46:53;;;;;;;2.00;1.50;;;12.20;43.70;;;;;;5002976;28;20232;-74
2022/11/30 08:49:20;;;;;;;2.00;1.40;;;12.10;42.50;;;;;;5004517;28;20195;-74
2022/11/30 08:51:46;;;;;;;1.90;1.20;;;11.90;40.60;;;;;;4999135;28;20572;-74
2022/11/30 08:54:12;;;;;;;1.80;1.20;;;11.80;42.40;;;;;;4993523;28;20174;-74
2022/11/30 08:56:38;;;;;;;3.17;2.03;;;11.90;42.60;;;;;;4993467;28;20177;-75
2022/11/30 08:59:03;;;;;;;3.53;1.93;;;11.80;42.40;;;;;;4998236;28;20568;-74
2022/11/30 09:01:29;;;;;;;2.40;1.57;;;11.90;43.10;;;;;;5007870;28;20480;-74
2022/11/30 09:03:56;;;;;;;1.97;1.30;;;12.10;43.90;;;;;;5002713;28;20201;-74
2022/11/30 09:06:22;;;;;;;1.80;1.20;;;12.20;43.80;;;;;;5005901;28;20320;-74
2022/11/30 09:08:49;;;;;;;2.33;1.30;;;12.10;43.80;;;;;;5004192;28;20181;-74
2022/11/30 09:11:16;;;;;;;2.55;1.83;;;12.00;43.20;;;;;;5006570;28;20212;-74
2022/11/30 09:13:42;;;;;;;1.92;1.27;;;12.10;43.80;;;;;;5011660;28;20182;-74
2022/11/30 09:16:09;;;;;;;2.28;1.52;;;12.00;42.50;;;;;;5008050;28;20197;-74
2022/11/30 09:18:36;;;;;;;4.25;2.30;;;12.00;43.10;;;;;;5010993;28;20187;-75
2022/11/30 09:21:04;;;;;;;3.88;3.05;;;12.00;43.60;;;;;;5010502;28;20212;-80
2022/11/30 09:23:30;;;;;;;1.90;1.23;;;12.00;43.60;;;;;;5004491;28;20194;-80
2022/11/30 09:26:00;;;;;;;1.87;1.23;;;12.00;44.00;;;;;;4996587;28;20286;-76
2022/11/30 09:28:26;;;;;;;2.20;1.40;;;12.00;44.20;;;;;;4995380;28;20479;-76
2022/11/30 09:30:52;;;;;;;2.10;1.40;;;12.00;43.70;;;;;;5006759;28;20874;-75
2022/11/30 09:33:19;;;;;;;1.80;1.20;;;12.00;43.80;;;;;;4997303;28;20239;-75
2022/11/30 09:35:53;;;;;;;1.80;1.20;;;12.00;43.00;;;;;;5012198;28;20474;-77
2022/11/30 09:38:18;;;;;;;2.05;1.30;;;12.10;43.40;;;;;;5003613;28;20787;-76
2022/11/30 09:40:47;;;;;;;1.90;1.10;;;12.20;43.80;;;;;;5009040;28;20299;-75
2022/11/30 09:43:40;;;;;;;2.40;1.77;;;12.10;42.10;;;;;;4993700;28;20200;-75
2022/11/30 09:46:09;;;;;;;1.80;1.10;;;12.00;42.60;;;;;;4990550;28;20233;-75
2022/11/30 09:48:53;;;;;;;2.00;1.60;;;11.90;42.00;;;;;;4998381;28;20178;-75
2022/11/30 09:51:24;;;;;;;1.90;1.20;;;11.90;42.30;;;;;;4983591;28;20693;-73
2022/11/30 09:54:07;;;;;;;2.00;1.30;;;11.90;42.00;;;;;;5000870;28;20188;-74
2022/11/30 09:56:36;;;;;;;2.40;1.48;;;12.30;42.70;;;;;;4981744;28;20190;-74
2022/11/30 09:59:25;;;;;;;2.00;1.30;;;12.00;41.90;;;;;;4983189;28;20189;-74
2022/11/30 10:01:51;;;;;;;1.90;1.20;;;12.10;42.50;;;;;;4985066;28;20693;-74
2022/11/30 10:04:24;;;;;;;2.45;1.48;;;12.10;43.60;;;;;;4984223;28;20277;-73
2022/11/30 10:07:42;;;;;;;2.20;1.50;;;12.00;42.80;;;;;;4982893;28;20623;-75
2022/11/30 10:10:21;;;;;;;1.88;1.20;;;12.00;42.10;;;;;;4984891;28;20178;-74
2022/11/30 10:13:12;;;;;;;2.00;1.33;;;12.10;41.80;;;;;;4983319;28;20197;-74
2022/11/30 10:15:41;;;;;;;2.30;1.65;;;12.00;41.70;;;;;;4981741;28;20562;-73
2022/11/30 10:18:28;;;;;;;2.10;1.38;;;11.70;42.80;;;;;;4990280;28;20181;-74
2022/11/30 10:21:09;;;;;;;3.38;1.50;;;11.80;42.80;;;;;;4990836;28;20580;-74
2022/11/30 10:23:44;;;;;;;1.90;1.20;;;12.10;42.10;;;;;;4984201;28;20232;-73
2022/11/30 10:26:15;;;;;;;2.00;1.30;;;12.10;42.00;;;;;;4980459;28;20237;-73
2022/11/30 10:28:51;;;;;;;1.90;1.20;;;12.30;43.40;;;;;;4985124;28;20442;-73
2022/11/30 10:31:19;;;;;;;1.98;1.20;;;12.20;42.40;;;;;;4981646;28;20449;-73
2022/11/30 10:33:48;;;;;;;3.43;1.70;;;12.40;41.90;;;;;;4983220;28;20194;-72
2022/11/30 10:36:16;;;;;;;2.20;1.30;;;12.40;42.80;;;;;;4988469;28;20936;-72
2022/11/30 10:38:48;;;;;;;2.20;1.37;;;12.30;42.20;;;;;;4978631;28;20981;-72
2022/11/30 10:41:19;;;;;;;2.15;1.30;;;12.30;41.30;;;;;;4978616;28;20943;-72
2022/11/30 10:44:04;;;;;;;2.10;1.30;;;11.90;42.40;;;;;;4992339;28;20169;-73
2022/11/30 10:46:36;;;;;;;2.83;1.50;;;12.00;43.10;;;;;;4992152;28;20248;-73
2022/11/30 10:49:10;;;;;;;2.30;1.40;;;12.20;42.60;;;;;;4992267;28;20397;-73
2022/11/30 10:51:38;;;;;;;2.70;1.37;;;12.40;42.40;;;;;;4994739;28;20220;-73
2022/11/30 10:54:15;;;;;;;2.10;1.40;;;12.20;42.50;;;;;;5008970;28;20460;-72
2022/11/30 10:56:41;;;;;;;2.33;1.50;;;12.10;42.90;;;;;;5011563;28;20740;-75
2022/11/30 10:59:23;;;;;;;2.10;1.40;;;12.00;44.00;;;;;;4997264;28;20239;-73
2022/11/30 11:01:51;;;;;;;5.22;2.13;;;12.00;43.40;;;;;;4991714;28;21033;-74
2022/11/30 11:04:26;;;;;;;1.92;1.10;;;12.60;43.70;;;;;;4991825;28;20251;-74
2022/11/30 11:06:58;;;;;;;2.20;1.33;;;12.40;42.20;;;;;;4993854;28;20193;-74
2022/11/30 11:09:29;;;;;;;2.10;1.27;;;12.40;42.50;;;;;;5013647;28;20647;-73
2022/11/30 11:12:12;;;;;;;2.10;1.35;;;12.30;41.20;;;;;;4989893;28;20205;-73
2022/11/30 11:14:38;;;;;;;1.90;1.10;;;12.10;42.10;;;;;;5021807;28;20185;-72
2022/11/30 11:17:25;;;;;;;2.03;1.27;;;12.10;41.10;;;;;;5007609;28;20550;-72
2022/11/30 11:19:51;;;;;;;2.15;1.40;;;12.10;41.90;;;;;;5003654;28;20259;-72
2022/11/30 11:22:22;;;;;;;1.98;1.30;;;12.20;41.30;;;;;;5006879;28;20212;-71
2022/11/30 11:25:09;;;;;;;2.00;1.20;;;12.20;41.70;;;;;;4992241;28;20189;-73
2022/11/30 11:27:34;;;;;;;2.00;1.30;;;12.30;41.60;;;;;;4987190;28;20201;-71
2022/11/30 11:30:03;;;;;;;1.97;1.27;;;12.00;41.50;;;;;;4987945;28;20815;-72
2022/11/30 11:32:29;;;;;;;2.20;1.30;;;11.70;42.10;;;;;;4986300;28;20208;-72
2022/11/30 11:34:56;;;;;;;2.58;1.77;;;12.00;41.60;;;;;;4986273;28;20186;-72
2022/11/30 11:37:25;;;;;;;2.67;1.70;;;12.10;41.10;;;;;;4985055;28;20186;-72
2022/11/30 11:40:15;;;;;;;2.05;1.33;;;12.20;41.60;;;;;;4985093;28;20273;-72
2022/11/30 11:42:41;;;;;;;1.85;1.10;;;12.20;40.90;;;;;;4986988;28;20206;-74
2022/11/30 11:45:25;;;;;;;2.10;1.40;;;11.70;41.70;;;;;;4994884;28;20688;-72
2022/11/30 11:48:02;;;;;;;2.85;1.90;;;11.80;42.60;;;;;;4994067;28;20602;-74
2022/11/30 11:50:35;;;;;;;1.98;1.27;;;11.90;42.50;;;;;;5004556;28;20185;-73
2022/11/30 11:53:23;;;;;;;2.13;1.42;;;12.20;42.30;;;;;;4997228;28;20181;-73
2022/11/30 11:55:55;;;;;;;1.95;1.15;;;11.90;42.10;;;;;;4988785;28;20217;-73
2022/11/30 11:58:42;;;;;;;2.50;1.73;;;11.80;42.80;;;;;;4990217;28;20198;-73
2022/11/30 12:01:16;;;;;;;2.00;1.30;;;11.90;42.30;;;;;;4990732;28;20228;-73
2022/11/30 12:04:05;;;;;;;2.20;1.40;;;12.00;42.20;;;;;;4994499;28;20174;-73
2022/11/30 12:06:32;;;;;;;2.13;1.30;;;12.10;42.00;;;;;;4992640;28;20685;-73
2022/11/30 12:09:13;;;;;;;2.20;1.40;;;12.10;42.80;;;;;;4992708;28;20559;-73
2022/11/30 12:11:45;;;;;;;2.00;1.30;;;12.00;42.60;;;;;;4986030;28;20539;-73
2022/11/30 12:14:13;;;;;;;2.75;1.77;;;12.00;42.10;;;;;;4993261;28;20920;-73
2022/11/30 12:17:16;;;;;;;1.83;1.10;;;12.20;41.70;;;;;;4992806;28;20316;-73
2022/11/30 12:20:13;;;;;;;1.98;1.30;;;12.10;41.70;;;;;;4986964;28;20185;-73
2022/11/30 12:23:15;;;;;;;2.13;1.30;;;12.30;42.00;;;;;;4985826;28;20743;-73
2022/11/30 12:25:53;;;;;;;2.67;1.53;;;12.60;41.00;;;;;;4988043;28;21045;-73
2022/11/30 12:28:40;;;;;;;2.00;1.13;;;12.50;42.20;;;;;;4992748;28;20498;-73
2022/11/30 12:31:16;;;;;;;1.92;1.10;;;12.60;40.80;;;;;;4991779;28;20456;-74
2022/11/30 12:33:41;;;;;;;1.98;1.15;;;12.40;41.60;;;;;;4993700;28;20188;-74
2022/11/30 12:36:48;;;;;;;2.00;1.20;;;12.30;41.80;;;;;;4990963;28;20190;-73
2022/11/30 12:39:17;;;;;;;2.00;1.20;;;12.30;41.50;;;;;;4991156;28;20263;-73
2022/11/30 12:41:51;;;;;;;1.95;1.10;;;12.40;41.80;;;;;;4991038;28;20488;-73
2022/11/30 12:44:40;;;;;;;2.70;1.92;;;12.30;41.90;;;;;;4993128;28;20615;-73
2022/11/30 12:47:19;;;;;;;3.45;2.17;;;12.30;41.60;;;;;;4993561;28;20187;-73
2022/11/30 12:50:10;;;;;;;1.98;1.13;;;12.20;42.40;;;;;;4993265;28;20547;-73
2022/11/30 12:52:54;;;;;;;4.53;1.67;;;12.10;42.40;;;;;;4988243;28;20565;-73
2022/11/30 12:55:29;;;;;;;2.40;1.67;;;12.30;42.80;;;;;;4989891;28;20181;-73
2022/11/30 12:58:13;;;;;;;2.10;1.33;;;11.30;44.40;;;;;;4993008;28;20243;-73
2022/11/30 13:00:54;;;;;;;2.63;1.70;;;11.40;45.10;;;;;;4986726;28;20186;-73
2022/11/30 13:03:59;;;;;;;2.20;1.40;;;11.70;44.10;;;;;;4991392;28;20589;-73
2022/11/30 13:06:31;;;;;;;2.10;1.25;;;11.60;44.10;;;;;;4972958;28;20209;-74